DLH3KV LGAV-EDDF
Flight info
| Callsign | DLH3KV |
|---|---|
| Flight time | N/A |
| Altitude | 38000 |
| Route | KOR UL53 IXONI DCT YNN UL611 TUMBO DCT OVVER DCT RODON DCT VAKSU DCT MONFA DCT SOTOV DCT NIKWU Q163 ETASA T163 SPESA SPESA5C |
| Aircraft | A319/M-SDE2E3FGIJ1LORWXYZ/HB1 |
Departure
| Time | 2026-05-08 06:35 |
|---|---|
| Airport | Athens Eleftherios Venizelos International Airport (LGAV) |
Arrival
| Time | N/A |
|---|---|
| Airport | Frankfurt Main Airport (EDDF) |
| Time | Latitude | Longitude | Altitude | Speed | Heading |
|---|---|---|---|---|---|
| 2026-05-08 06:23 | 37.94053 | 23.95254 | 301 ft | 0 kts | 39° |
| 2026-05-08 06:27 | 37.94041 | 23.95241 | 303 ft | 3 kts | 39° |
| 2026-05-08 06:27 | 37.94026 | 23.95226 | 300 ft | 3 kts | 39° |
| 2026-05-08 06:27 | 37.94011 | 23.95211 | 302 ft | 3 kts | 39° |
| 2026-05-08 06:27 | 37.94000 | 23.95194 | 301 ft | 3 kts | 104° |
| 2026-05-08 06:28 | 37.94001 | 23.95186 | 301 ft | 0 kts | 123° |
| 2026-05-08 06:28 | 37.94001 | 23.95187 | 301 ft | 0 kts | 123° |
| 2026-05-08 06:29 | 37.94001 | 23.95188 | 301 ft | 3 kts | 123° |
| 2026-05-08 06:29 | 37.93968 | 23.95236 | 308 ft | 8 kts | 134° |
| 2026-05-08 06:30 | 37.93926 | 23.95301 | 302 ft | 10 kts | 129° |
| 2026-05-08 06:30 | 37.93879 | 23.95375 | 299 ft | 12 kts | 129° |
| 2026-05-08 06:30 | 37.93854 | 23.95474 | 296 ft | 12 kts | 54° |
| 2026-05-08 06:30 | 37.93925 | 23.95544 | 299 ft | 16 kts | 37° |
| 2026-05-08 06:31 | 37.94022 | 23.95637 | 299 ft | 18 kts | 38° |
| 2026-05-08 06:31 | 37.94120 | 23.95735 | 300 ft | 18 kts | 39° |
| 2026-05-08 06:31 | 37.94226 | 23.95823 | 299 ft | 19 kts | 36° |
| 2026-05-08 06:31 | 37.94336 | 23.95932 | 298 ft | 20 kts | 41° |
| 2026-05-08 06:32 | 37.94443 | 23.96042 | 299 ft | 20 kts | 35° |
| 2026-05-08 06:32 | 37.94556 | 23.96141 | 299 ft | 20 kts | 36° |
| 2026-05-08 06:32 | 37.94664 | 23.96244 | 300 ft | 19 kts | 38° |
| 2026-05-08 06:32 | 37.94769 | 23.96347 | 302 ft | 19 kts | 35° |
| 2026-05-08 06:33 | 37.94883 | 23.96449 | 301 ft | 20 kts | 36° |
| 2026-05-08 06:33 | 37.94995 | 23.96554 | 302 ft | 20 kts | 37° |
| 2026-05-08 06:33 | 37.95104 | 23.96658 | 303 ft | 19 kts | 37° |
| 2026-05-08 06:33 | 37.95211 | 23.96761 | 303 ft | 19 kts | 37° |
| 2026-05-08 06:34 | 37.95305 | 23.96873 | 303 ft | 18 kts | 77° |
| 2026-05-08 06:34 | 37.95244 | 23.97004 | 309 ft | 16 kts | 127° |
| 2026-05-08 06:34 | 37.95186 | 23.97009 | 310 ft | 6 kts | 220° |
| 2026-05-08 06:34 | 37.95102 | 23.96930 | 309 ft | 42 kts | 216° |
| 2026-05-08 06:35 | 37.94662 | 23.96519 | 300 ft | 113 kts | 217° |
| 2026-05-08 06:35 | 37.93881 | 23.95780 | 333 ft | 160 kts | 217° |
| 2026-05-08 06:35 | 37.92936 | 23.94957 | 832 ft | 166 kts | 214° |
| 2026-05-08 06:35 | 37.91936 | 23.94210 | 1498 ft | 167 kts | 207° |
| 2026-05-08 06:36 | 37.90848 | 23.93482 | 1938 ft | 189 kts | 206° |
| 2026-05-08 06:36 | 37.89611 | 23.92663 | 2341 ft | 213 kts | 207° |
| 2026-05-08 06:36 | 37.88256 | 23.91757 | 3012 ft | 225 kts | 208° |
| 2026-05-08 06:36 | 37.86857 | 23.90813 | 3853 ft | 227 kts | 208° |
| 2026-05-08 06:37 | 37.85447 | 23.89851 | 4768 ft | 231 kts | 209° |
| 2026-05-08 06:37 | 37.84024 | 23.88879 | 5609 ft | 236 kts | 209° |
| 2026-05-08 06:37 | 37.82561 | 23.87881 | 6454 ft | 242 kts | 210° |
| 2026-05-08 06:37 | 37.81040 | 23.86844 | 7299 ft | 248 kts | 210° |
| 2026-05-08 06:38 | 37.79518 | 23.85802 | 8172 ft | 250 kts | 210° |
| 2026-05-08 06:38 | 37.77983 | 23.84755 | 9016 ft | 252 kts | 210° |
| 2026-05-08 06:38 | 37.76421 | 23.83693 | 9836 ft | 256 kts | 210° |
| 2026-05-08 06:38 | 37.74836 | 23.82615 | 10587 ft | 262 kts | 211° |
| 2026-05-08 06:39 | 37.73240 | 23.81542 | 11370 ft | 264 kts | 211° |
| 2026-05-08 06:39 | 37.71583 | 23.80435 | 12148 ft | 267 kts | 211° |
| 2026-05-08 06:39 | 37.69934 | 23.79335 | 12912 ft | 270 kts | 212° |
| 2026-05-08 06:39 | 37.68259 | 23.78220 | 13674 ft | 274 kts | 212° |
| 2026-05-08 06:40 | 37.66568 | 23.77100 | 14342 ft | 277 kts | 213° |
| 2026-05-08 06:40 | 37.64853 | 23.75957 | 14990 ft | 280 kts | 213° |
| 2026-05-08 06:40 | 37.63114 | 23.74800 | 15643 ft | 284 kts | 215° |
| 2026-05-08 06:40 | 37.61363 | 23.73634 | 16316 ft | 286 kts | 215° |
| 2026-05-08 06:41 | 37.59591 | 23.72455 | 16978 ft | 289 kts | 216° |
| 2026-05-08 06:41 | 37.57806 | 23.71264 | 17644 ft | 292 kts | 217° |
| 2026-05-08 06:41 | 37.56209 | 23.69677 | 17904 ft | 295 kts | 239° |
| 2026-05-08 06:41 | 37.55328 | 23.67340 | 18044 ft | 303 kts | 260° |
| 2026-05-08 06:42 | 37.54905 | 23.64650 | 18188 ft | 320 kts | 262° |
| 2026-05-08 06:42 | 37.54465 | 23.61860 | 18575 ft | 327 kts | 262° |
| 2026-05-08 06:42 | 37.54011 | 23.59045 | 19045 ft | 331 kts | 262° |
| 2026-05-08 06:42 | 37.53543 | 23.56191 | 19576 ft | 336 kts | 260° |
| 2026-05-08 06:43 | 37.53065 | 23.53318 | 20159 ft | 336 kts | 260° |
| 2026-05-08 06:43 | 37.52576 | 23.50408 | 20756 ft | 339 kts | 261° |
| 2026-05-08 06:43 | 37.52086 | 23.47502 | 21326 ft | 340 kts | 260° |
| 2026-05-08 06:43 | 37.51596 | 23.44568 | 21878 ft | 343 kts | 260° |
| 2026-05-08 06:44 | 37.51106 | 23.41623 | 22470 ft | 345 kts | 259° |
| 2026-05-08 06:44 | 37.50612 | 23.38648 | 23046 ft | 348 kts | 259° |
| 2026-05-08 06:44 | 37.50113 | 23.35664 | 23619 ft | 350 kts | 259° |
| 2026-05-08 06:44 | 37.49610 | 23.32655 | 24082 ft | 352 kts | 259° |
| 2026-05-08 06:45 | 37.49107 | 23.29644 | 24549 ft | 353 kts | 259° |
| 2026-05-08 06:45 | 37.48895 | 23.26589 | 24981 ft | 353 kts | 273° |
| 2026-05-08 06:45 | 37.49434 | 23.23537 | 25396 ft | 362 kts | 288° |
| 2026-05-08 06:45 | 37.50212 | 23.21667 | 25689 ft | 370 kts | 300° |
| 2026-05-08 06:46 | 37.52005 | 23.19274 | 26150 ft | 384 kts | 317° |
| 2026-05-08 06:46 | 37.55197 | 23.17073 | 26707 ft | 395 kts | 326° |
| 2026-05-08 06:46 | 37.56870 | 23.16045 | 26985 ft | 397 kts | 326° |
| 2026-05-08 06:46 | 37.59368 | 23.14521 | 27373 ft | 399 kts | 326° |
| 2026-05-08 06:47 | 37.61841 | 23.13007 | 27758 ft | 403 kts | 326° |
| 2026-05-08 06:47 | 37.64390 | 23.11432 | 28168 ft | 404 kts | 325° |
| 2026-05-08 06:47 | 37.66928 | 23.09857 | 28531 ft | 406 kts | 324° |
| 2026-05-08 06:47 | 37.69479 | 23.08266 | 28799 ft | 411 kts | 324° |
| 2026-05-08 06:48 | 37.72041 | 23.06668 | 29151 ft | 413 kts | 324° |
| 2026-05-08 06:48 | 37.74634 | 23.05056 | 29517 ft | 417 kts | 324° |
| 2026-05-08 06:48 | 37.77242 | 23.03437 | 29922 ft | 419 kts | 324° |
| 2026-05-08 06:48 | 37.79867 | 23.01808 | 30266 ft | 422 kts | 324° |
| 2026-05-08 06:49 | 37.82505 | 23.00167 | 30587 ft | 423 kts | 324° |
| 2026-05-08 06:49 | 37.85145 | 22.98523 | 30906 ft | 424 kts | 324° |
| 2026-05-08 06:49 | 37.87801 | 22.96868 | 31231 ft | 426 kts | 324° |
| 2026-05-08 06:49 | 37.90410 | 22.95142 | 31556 ft | 420 kts | 319° |
| 2026-05-08 06:50 | 37.92738 | 22.92992 | 31947 ft | 408 kts | 310° |
| 2026-05-08 06:50 | 37.94704 | 22.90453 | 32414 ft | 396 kts | 302° |
| 2026-05-08 06:50 | 37.96310 | 22.87677 | 32914 ft | 389 kts | 297° |
| 2026-05-08 06:50 | 37.97849 | 22.84864 | 33323 ft | 387 kts | 298° |
| 2026-05-08 06:51 | 37.99386 | 22.82066 | 33755 ft | 386 kts | 298° |
| 2026-05-08 06:51 | 38.00919 | 22.79284 | 34193 ft | 384 kts | 298° |
| 2026-05-08 06:51 | 38.02442 | 22.76521 | 34554 ft | 382 kts | 297° |
| 2026-05-08 06:51 | 38.03955 | 22.73762 | 34835 ft | 382 kts | 298° |
| 2026-05-08 06:52 | 38.05473 | 22.70998 | 35112 ft | 381 kts | 297° |
| 2026-05-08 06:52 | 38.06988 | 22.68231 | 35380 ft | 382 kts | 298° |
| 2026-05-08 06:52 | 38.08501 | 22.65466 | 35663 ft | 382 kts | 298° |
| 2026-05-08 06:52 | 38.10037 | 22.62665 | 35955 ft | 382 kts | 298° |
| 2026-05-08 06:53 | 38.11554 | 22.59905 | 36235 ft | 381 kts | 298° |
| 2026-05-08 06:53 | 38.13041 | 22.57190 | 36491 ft | 381 kts | 298° |
| 2026-05-08 06:53 | 38.14551 | 22.54423 | 36737 ft | 381 kts | 298° |
| 2026-05-08 06:53 | 38.16056 | 22.51655 | 36975 ft | 381 kts | 298° |
| 2026-05-08 06:54 | 38.17587 | 22.48846 | 37227 ft | 381 kts | 299° |
| 2026-05-08 06:54 | 38.19091 | 22.46097 | 37400 ft | 378 kts | 298° |
| 2026-05-08 06:54 | 38.20581 | 22.43349 | 37567 ft | 377 kts | 297° |
| 2026-05-08 06:54 | 38.22081 | 22.40584 | 37694 ft | 378 kts | 298° |
| 2026-05-08 06:55 | 38.23591 | 22.37806 | 37874 ft | 383 kts | 300° |
| 2026-05-08 06:55 | 38.25121 | 22.35007 | 38108 ft | 386 kts | 300° |
| 2026-05-08 06:55 | 38.28159 | 22.29414 | 38129 ft | 382 kts | 298° |
| 2026-05-08 06:56 | 38.31237 | 22.23905 | 38148 ft | 387 kts | 303° |
| 2026-05-08 06:56 | 38.33209 | 22.21478 | 38112 ft | 397 kts | 314° |
| 2026-05-08 06:56 | 38.35399 | 22.19335 | 38124 ft | 398 kts | 314° |
| 2026-05-08 06:57 | 38.39757 | 22.15047 | 38123 ft | 393 kts | 315° |
| 2026-05-08 06:57 | 38.44101 | 22.10709 | 38145 ft | 401 kts | 313° |
| 2026-05-08 06:58 | 38.48523 | 22.06285 | 38184 ft | 400 kts | 314° |
| 2026-05-08 06:58 | 38.52888 | 22.01890 | 38152 ft | 400 kts | 314° |
| 2026-05-08 06:59 | 38.57259 | 21.97518 | 38142 ft | 400 kts | 314° |
| 2026-05-08 06:59 | 38.61651 | 21.93130 | 38141 ft | 401 kts | 314° |
| 2026-05-08 07:00 | 38.66041 | 21.88724 | 38138 ft | 400 kts | 314° |
| 2026-05-08 07:00 | 38.70415 | 21.84324 | 38134 ft | 399 kts | 314° |
| 2026-05-08 07:01 | 38.74770 | 21.79946 | 38090 ft | 394 kts | 313° |
| 2026-05-08 07:01 | 38.79045 | 21.75619 | 38095 ft | 391 kts | 312° |
| 2026-05-08 07:02 | 38.83325 | 21.71264 | 38105 ft | 390 kts | 314° |
| 2026-05-08 07:02 | 38.87602 | 21.66963 | 38132 ft | 393 kts | 313° |
| 2026-05-08 07:03 | 38.91966 | 21.62517 | 38138 ft | 402 kts | 313° |
| 2026-05-08 07:03 | 38.96339 | 21.58077 | 38147 ft | 400 kts | 312° |
| 2026-05-08 07:04 | 39.00713 | 21.53616 | 38128 ft | 397 kts | 313° |
| 2026-05-08 07:04 | 39.05072 | 21.49200 | 38142 ft | 402 kts | 313° |
| 2026-05-08 07:05 | 39.09452 | 21.44721 | 38138 ft | 403 kts | 313° |
| 2026-05-08 07:05 | 39.13846 | 21.40219 | 38156 ft | 404 kts | 313° |
| 2026-05-08 07:06 | 39.18258 | 21.35696 | 38144 ft | 406 kts | 313° |
| 2026-05-08 07:06 | 39.22675 | 21.31165 | 38142 ft | 408 kts | 313° |
| 2026-05-08 07:07 | 39.27119 | 21.26601 | 38148 ft | 407 kts | 314° |
| 2026-05-08 07:07 | 39.31554 | 21.22037 | 38158 ft | 407 kts | 313° |
| 2026-05-08 07:08 | 39.35971 | 21.17499 | 38149 ft | 406 kts | 313° |
| 2026-05-08 07:08 | 39.40383 | 21.12938 | 38182 ft | 407 kts | 314° |